createdAt,value
2023-11-18T00:00:24.338Z,67.62
2023-11-18T00:02:52.394Z,67.40
2023-11-18T00:05:20.461Z,68.09
2023-11-18T00:07:48.463Z,68.05
2023-11-18T00:10:16.500Z,68.01
2023-11-18T00:12:45.813Z,67.53
2023-11-18T00:15:14.043Z,66.89
2023-11-18T00:17:42.204Z,67.44
2023-11-18T00:20:13.589Z,66.91
2023-11-18T00:22:42.592Z,67.58
2023-11-18T00:25:12.025Z,66.95
2023-11-18T00:27:40.440Z,66.66
2023-11-18T00:30:12.189Z,66.69
2023-11-18T00:32:40.882Z,66.56
2023-11-18T00:35:11.466Z,66.86
2023-11-18T00:37:40.144Z,66.66
2023-11-18T00:40:09.825Z,66.75
2023-11-18T00:42:37.816Z,66.64
2023-11-18T00:45:08.453Z,66.08
2023-11-18T00:47:37.941Z,65.85
2023-11-18T00:50:09.289Z,66.80
2023-11-18T00:52:39.681Z,66.15
2023-11-18T00:55:09.071Z,66.63
2023-11-18T00:57:37.021Z,66.54
2023-11-18T01:00:05.467Z,66.17
2023-11-18T01:02:33.497Z,66.65
2023-11-18T01:05:02.932Z,66.45
2023-11-18T01:07:30.960Z,66.35
2023-11-18T01:09:58.927Z,66.36
2023-11-18T01:12:26.987Z,66.59
2023-11-18T01:14:55.729Z,66.60
2023-11-18T01:17:24.945Z,67.00
2023-11-18T01:19:53.560Z,67.07
2023-11-18T01:22:23.253Z,67.10
2023-11-18T01:24:52.159Z,66.83
2023-11-18T01:27:20.506Z,66.65
2023-11-18T01:29:48.921Z,66.75
2023-11-18T01:32:18.427Z,66.95
2023-11-18T01:34:51.344Z,66.93
2023-11-18T01:37:23.211Z,67.00
2023-11-18T01:39:52.569Z,67.52
2023-11-18T01:42:20.567Z,67.01
2023-11-18T01:44:49.310Z,67.04
2023-11-18T01:47:17.565Z,66.90
2023-11-18T01:49:46.704Z,66.85
2023-11-18T01:52:15.032Z,65.99
2023-11-18T01:54:45.928Z,66.83
2023-11-18T01:57:17.151Z,67.07
2023-11-18T01:59:45.307Z,66.96
2023-11-18T02:02:14.296Z,66.97
2023-11-18T02:04:42.410Z,67.12
2023-11-18T02:07:16.079Z,66.95
2023-11-18T02:09:46.746Z,66.96
2023-11-18T02:12:27.930Z,67.23
2023-11-18T02:15:01.175Z,67.07
2023-11-18T02:17:31.482Z,67.72
2023-11-18T02:20:00.770Z,67.48
2023-11-18T02:22:29.018Z,67.27
2023-11-18T02:24:57.522Z,66.91
2023-11-18T02:27:28.065Z,67.11
2023-11-18T02:29:56.178Z,66.91
2023-11-18T02:32:32.077Z,67.42
2023-11-18T02:35:11.408Z,66.55
2023-11-18T02:37:44.993Z,66.98
2023-11-18T02:40:18.836Z,67.02
2023-11-18T02:42:54.136Z,66.93
2023-11-18T02:45:23.758Z,66.89
2023-11-18T02:47:51.815Z,67.23
2023-11-18T02:50:21.762Z,66.83
2023-11-18T02:52:49.851Z,67.25
2023-11-18T02:55:17.997Z,67.24
2023-11-18T02:57:47.925Z,67.43
2023-11-18T03:00:20.513Z,67.06
2023-11-18T03:02:49.334Z,67.06
2023-11-18T03:05:17.436Z,66.71
2023-11-18T03:07:48.345Z,67.35
2023-11-18T03:10:22.167Z,67.30
2023-11-18T03:12:53.698Z,67.36
2023-11-18T03:15:23.331Z,67.32
2023-11-18T03:17:52.831Z,66.92
2023-11-18T03:20:24.056Z,67.39
2023-11-18T03:22:53.405Z,67.21
2023-11-18T03:25:23.679Z,67.03
2023-11-18T03:27:55.601Z,67.28
2023-11-18T03:30:23.890Z,67.18
2023-11-18T03:32:51.857Z,67.39
2023-11-18T03:35:20.379Z,66.99
2023-11-18T03:37:48.756Z,67.22
2023-11-18T03:40:17.119Z,67.10
2023-11-18T03:42:47.423Z,67.07
2023-11-18T03:45:18.867Z,67.65
2023-11-18T03:47:48.708Z,67.72
2023-11-18T03:50:16.825Z,67.62
2023-11-18T03:52:44.820Z,67.59
2023-11-18T03:55:13.254Z,67.88
2023-11-18T03:57:41.966Z,67.63
2023-11-18T04:00:12.783Z,67.67
2023-11-18T04:02:43.191Z,67.92
2023-11-18T04:05:11.548Z,67.90
2023-11-18T04:07:42.754Z,67.93
2023-11-18T04:10:11.853Z,67.08
2023-11-18T04:12:39.979Z,67.67
2023-11-18T04:15:08.937Z,67.41
2023-11-18T04:17:37.192Z,67.46
2023-11-18T04:20:12.704Z,67.79
2023-11-18T04:22:42.641Z,67.45
2023-11-18T04:25:11.539Z,67.58
2023-11-18T04:27:40.397Z,67.36
2023-11-18T04:30:10.803Z,67.61
2023-11-18T04:32:39.142Z,67.28
2023-11-18T04:35:10.950Z,67.45
2023-11-18T04:37:39.272Z,67.08
2023-11-18T04:40:10.661Z,67.26
2023-11-18T04:42:42.882Z,67.52
2023-11-18T04:45:15.515Z,67.53
2023-11-18T04:47:45.008Z,67.04
2023-11-18T04:50:14.954Z,67.17
2023-11-18T04:52:43.090Z,66.63
2023-11-18T04:55:14.307Z,67.46
2023-11-18T04:57:42.583Z,66.86
2023-11-18T05:00:12.881Z,66.74
2023-11-18T05:02:41.461Z,67.31
2023-11-18T05:05:09.873Z,67.46
2023-11-18T05:07:39.685Z,67.04
2023-11-18T05:10:09.330Z,67.35
2023-11-18T05:12:37.963Z,67.42
2023-11-18T05:15:08.710Z,67.27
2023-11-18T05:17:37.670Z,67.60
2023-11-18T05:20:09.514Z,67.49
2023-11-18T05:22:38.969Z,67.60
2023-11-18T05:25:08.597Z,67.11
2023-11-18T05:27:36.637Z,67.00
2023-11-18T05:30:06.479Z,67.34
2023-11-18T05:32:34.599Z,67.59
2023-11-18T05:35:02.732Z,67.29
2023-11-18T05:37:30.853Z,66.94
2023-11-18T05:40:07.093Z,67.54
2023-11-18T05:42:40.353Z,66.94
2023-11-18T05:45:12.146Z,66.83
2023-11-18T05:47:40.180Z,67.12
2023-11-18T05:50:10.896Z,67.04
2023-11-18T05:52:39.176Z,67.16
2023-11-18T05:55:09.779Z,67.17
2023-11-18T05:57:37.807Z,66.96
2023-11-18T06:00:10.065Z,66.57
2023-11-18T06:02:40.820Z,66.74
2023-11-18T06:05:09.741Z,66.86
2023-11-18T06:07:38.004Z,66.93
2023-11-18T06:10:08.576Z,67.14
2023-11-18T06:12:38.298Z,67.18
2023-11-18T06:15:06.883Z,66.94
2023-11-18T06:17:34.909Z,66.90
2023-11-18T06:20:07.272Z,67.35
2023-11-18T06:22:35.928Z,67.23
2023-11-18T06:25:04.201Z,67.08
2023-11-18T06:27:33.885Z,67.29
2023-11-18T06:30:01.869Z,67.77
2023-11-18T06:32:29.844Z,67.62
2023-11-18T06:34:57.850Z,68.08
2023-11-18T06:37:25.819Z,67.45
2023-11-18T06:39:53.831Z,67.45
2023-11-18T06:42:24.610Z,67.43
2023-11-18T06:44:53.872Z,67.40
2023-11-18T06:47:21.820Z,67.54
2023-11-18T06:49:49.840Z,67.55
2023-11-18T06:52:17.835Z,67.58
2023-11-18T06:54:46.246Z,67.82
2023-11-18T06:57:14.235Z,67.20
2023-11-18T06:59:42.275Z,67.62
2023-11-18T07:02:11.764Z,67.41
2023-11-18T07:04:41.274Z,67.02
2023-11-18T07:07:10.015Z,67.60
2023-11-18T07:09:38.140Z,67.24
2023-11-18T07:12:06.445Z,67.48
2023-11-18T07:14:34.382Z,67.33
2023-11-18T07:17:02.373Z,67.28
2023-11-18T07:19:34.315Z,67.18
2023-11-18T07:22:03.607Z,66.93
2023-11-18T07:24:33.541Z,67.32
2023-11-18T07:27:01.843Z,68.65
2023-11-18T07:29:29.792Z,68.10
2023-11-18T07:31:57.669Z,67.62
2023-11-18T07:34:26.978Z,67.67
2023-11-18T07:36:56.865Z,66.73
2023-11-18T07:39:44.621Z,66.61
2023-11-18T07:42:13.496Z,66.21
2023-11-18T07:44:41.687Z,66.68
2023-11-18T07:47:09.618Z,65.40
2023-11-18T07:49:37.873Z,66.84
2023-11-18T07:52:08.095Z,66.25
2023-11-18T07:54:36.000Z,65.31
2023-11-18T07:57:05.699Z,64.30
2023-11-18T07:59:33.669Z,64.53
2023-11-18T08:02:07.202Z,63.14
2023-11-18T08:04:36.448Z,62.58
2023-11-18T08:07:05.389Z,63.33
2023-11-18T08:09:34.670Z,62.95
2023-11-18T08:12:02.593Z,62.55
2023-11-18T08:14:30.572Z,63.52
2023-11-18T08:17:01.135Z,62.04
2023-11-18T08:19:29.439Z,64.27
2023-11-18T08:21:57.896Z,64.43
2023-11-18T08:24:25.851Z,63.54
2023-11-18T08:26:55.345Z,62.57
2023-11-18T08:29:25.413Z,62.80
2023-11-18T08:31:53.537Z,62.37
2023-11-18T08:34:21.575Z,61.45
2023-11-18T08:36:49.576Z,61.31
2023-11-18T08:39:17.979Z,60.22
2023-11-18T08:41:46.867Z,59.80
2023-11-18T08:44:23.754Z,59.98
2023-11-18T08:46:54.191Z,59.25
2023-11-18T08:49:23.380Z,58.41
2023-11-18T08:51:57.157Z,58.64
2023-11-18T08:54:37.161Z,57.95
2023-11-18T08:57:20.665Z,57.74
2023-11-18T08:59:49.961Z,56.90
2023-11-18T09:04:53.718Z,55.99
2023-11-18T09:07:22.880Z,55.95
2023-11-18T09:09:53.818Z,56.14
2023-11-18T09:12:21.882Z,55.79
2023-11-18T09:14:53.119Z,56.35
2023-11-18T09:17:23.691Z,56.16
2023-11-18T09:19:53.783Z,55.03
2023-11-18T09:22:22.002Z,54.57
2023-11-18T09:24:50.596Z,54.37
2023-11-18T09:27:18.681Z,54.06
2023-11-18T09:29:46.814Z,53.09
2023-11-18T09:32:16.460Z,52.14
2023-11-18T09:34:44.479Z,49.36
2023-11-18T09:37:12.472Z,47.51
2023-11-18T09:39:44.275Z,45.29
2023-11-18T09:42:15.293Z,42.53
2023-11-18T09:44:43.301Z,40.98
2023-11-18T09:47:17.489Z,40.58
2023-11-18T09:49:57.713Z,37.91
2023-11-18T09:52:28.622Z,38.82
2023-11-18T09:55:05.904Z,37.90
2023-11-18T09:57:38.334Z,38.83
2023-11-18T10:00:21.141Z,38.05
2023-11-18T10:02:52.551Z,38.77
2023-11-18T10:05:24.181Z,37.68
2023-11-18T10:07:53.125Z,37.83
2023-11-18T10:10:22.633Z,37.03
2023-11-18T10:12:54.172Z,36.84
2023-11-18T10:15:25.463Z,36.70
2023-11-18T10:17:58.718Z,36.42
2023-11-18T10:20:46.721Z,35.85
2023-11-18T10:23:20.551Z,36.10
2023-11-18T10:25:50.213Z,37.56
2023-11-18T10:28:25.461Z,37.52
2023-11-18T10:30:53.512Z,36.56
2023-11-18T10:33:23.034Z,36.05
2023-11-18T10:35:53.495Z,36.96
2023-11-18T10:38:21.477Z,36.36
2023-11-18T10:40:49.854Z,38.03
2023-11-18T10:43:18.106Z,38.17
2023-11-18T10:45:48.086Z,39.31
2023-11-18T10:48:21.135Z,40.50
2023-11-18T10:50:50.997Z,41.05
2023-11-18T10:53:22.678Z,40.96
2023-11-18T10:55:51.640Z,41.43
2023-11-18T10:58:20.636Z,41.86
2023-11-18T11:00:50.539Z,41.44
2023-11-18T11:03:19.493Z,41.80
2023-11-18T11:05:48.127Z,42.81
2023-11-18T11:08:24.570Z,43.29
2023-11-18T11:11:01.389Z,42.76
2023-11-18T11:13:33.849Z,43.08
2023-11-18T11:16:07.153Z,44.07
2023-11-18T11:18:46.408Z,44.85
2023-11-18T11:21:18.013Z,45.57
2023-11-18T11:23:56.520Z,45.85
2023-11-18T11:26:43.341Z,45.17
2023-11-18T11:29:27.606Z,45.93
2023-11-18T11:32:13.624Z,46.10
2023-11-18T11:34:52.750Z,46.53
2023-11-18T11:37:24.856Z,46.60
2023-11-18T11:39:54.915Z,47.12
2023-11-18T11:42:25.622Z,48.42
2023-11-18T11:44:56.785Z,48.70
2023-11-18T11:47:29.131Z,48.97
2023-11-18T11:50:11.715Z,49.66
2023-11-18T11:52:49.836Z,49.01
2023-11-18T11:55:29.592Z,48.67
2023-11-18T11:57:59.874Z,49.30
2023-11-18T12:00:35.481Z,50.45
2023-11-18T12:03:05.857Z,49.39
2023-11-18T12:05:35.083Z,49.74
2023-11-18T12:08:03.547Z,49.66
2023-11-18T12:10:33.169Z,49.33
2023-11-18T12:13:17.466Z,50.10
2023-11-18T12:15:58.279Z,48.87
2023-11-18T12:18:27.238Z,48.76
2023-11-18T12:20:58.750Z,49.03
2023-11-18T12:23:27.387Z,49.12
2023-11-18T12:25:57.676Z,49.70
2023-11-18T12:28:31.792Z,49.74
2023-11-18T12:31:06.382Z,49.14
2023-11-18T12:34:03.760Z,49.12
2023-11-18T12:37:06.330Z,49.80
2023-11-18T12:40:05.667Z,49.78
2023-11-18T12:43:06.691Z,49.14
2023-11-18T12:46:08.092Z,49.97
2023-11-18T12:48:47.483Z,49.83
2023-11-18T12:51:20.626Z,49.29
2023-11-18T12:53:54.423Z,48.95
2023-11-18T12:56:24.517Z,48.49
2023-11-18T12:58:53.249Z,48.45
2023-11-18T13:01:21.433Z,49.07
2023-11-18T13:03:51.034Z,48.62
2023-11-18T13:06:19.602Z,47.95
2023-11-18T13:08:48.481Z,48.29
2023-11-18T13:11:17.905Z,48.35
2023-11-18T13:13:46.043Z,48.46
2023-11-18T13:16:15.759Z,48.28
2023-11-18T13:18:45.477Z,48.34
2023-11-18T13:21:18.309Z,48.55
2023-11-18T13:23:51.179Z,48.68
2023-11-18T13:26:20.575Z,49.20
2023-11-18T13:28:50.218Z,48.83
2023-11-18T13:31:19.025Z,49.24
2023-11-18T13:33:49.900Z,49.04
2023-11-18T13:36:19.342Z,48.89
2023-11-18T13:38:50.609Z,49.91
2023-11-18T13:41:30.738Z,50.93
2023-11-18T13:43:59.315Z,50.78
2023-11-18T13:46:28.564Z,51.14
2023-11-18T13:48:56.560Z,50.23
2023-11-18T13:51:25.871Z,51.01
2023-11-18T13:53:53.859Z,51.24
2023-11-18T13:56:23.378Z,50.94
2023-11-18T13:58:51.657Z,51.63
2023-11-18T14:01:19.770Z,51.67
2023-11-18T14:03:49.041Z,52.27
2023-11-18T14:06:18.562Z,52.18
2023-11-18T14:08:47.934Z,51.98
2023-11-18T14:11:17.958Z,51.75
2023-11-18T14:13:46.344Z,50.49
2023-11-18T14:16:18.011Z,51.39
2023-11-18T14:18:46.002Z,51.98
2023-11-18T14:21:15.510Z,51.29
2023-11-18T14:23:43.684Z,51.50
2023-11-18T14:26:13.267Z,51.30
2023-11-18T14:28:41.213Z,51.63
2023-11-18T14:31:10.968Z,52.14
2023-11-18T14:33:38.910Z,52.55
2023-11-18T14:36:07.838Z,51.96
2023-11-18T14:38:36.260Z,52.62
2023-11-18T14:41:05.581Z,52.55
2023-11-18T14:43:34.929Z,52.42
2023-11-18T14:46:04.946Z,52.97
2023-11-18T14:48:33.413Z,53.29
2023-11-18T14:51:01.665Z,53.73
2023-11-18T14:53:29.610Z,54.18
2023-11-18T14:55:58.859Z,54.53
2023-11-18T14:58:27.487Z,54.34
2023-11-18T15:00:58.057Z,54.52
2023-11-18T15:03:26.218Z,55.46
2023-11-18T15:05:54.192Z,55.36
2023-11-18T15:08:22.170Z,54.56
2023-11-18T15:10:50.480Z,57.23
2023-11-18T15:13:19.231Z,55.39
2023-11-18T15:15:48.463Z,55.62
2023-11-18T15:18:19.814Z,54.85
2023-11-18T15:20:49.364Z,54.85
2023-11-18T15:23:19.377Z,56.03
2023-11-18T15:25:47.788Z,55.63
2023-11-18T15:28:16.403Z,56.87
2023-11-18T15:30:45.346Z,57.13
2023-11-18T15:33:14.698Z,57.80
2023-11-18T15:35:44.153Z,58.50
2023-11-18T15:38:18.639Z,58.81
2023-11-18T15:40:47.190Z,58.63
2023-11-18T15:43:15.087Z,57.96
2023-11-18T15:45:45.696Z,58.01
2023-11-18T15:48:15.524Z,57.57
2023-11-18T15:50:45.074Z,58.01
2023-11-18T15:53:15.043Z,59.23
2023-11-18T15:55:45.001Z,58.48
2023-11-18T15:58:14.195Z,58.84
2023-11-18T16:00:42.348Z,59.58
2023-11-18T16:03:10.667Z,60.19
2023-11-18T16:05:38.799Z,59.93
2023-11-18T16:08:08.995Z,59.88
2023-11-18T16:10:38.560Z,60.34
2023-11-18T16:13:07.741Z,59.51
2023-11-18T16:15:36.844Z,60.37
2023-11-18T16:18:05.785Z,59.82
2023-11-18T16:20:34.782Z,59.84
2023-11-18T16:23:05.528Z,59.82
2023-11-18T16:25:36.776Z,60.36
2023-11-18T16:28:08.426Z,62.37
2023-11-18T16:30:36.467Z,61.43
2023-11-18T16:33:05.703Z,61.61
2023-11-18T16:35:33.778Z,61.44
2023-11-18T16:38:02.582Z,60.79
2023-11-18T16:40:34.231Z,60.96
2023-11-18T16:43:03.601Z,60.47
2023-11-18T16:45:31.605Z,60.91
2023-11-18T16:47:59.768Z,61.10
2023-11-18T16:50:28.503Z,60.80
2023-11-18T16:52:57.859Z,61.07
2023-11-18T16:55:26.778Z,61.46
2023-11-18T16:57:55.472Z,61.66
2023-11-18T17:00:25.391Z,60.71
2023-11-18T17:02:56.931Z,60.55
2023-11-18T17:05:27.347Z,60.42
2023-11-18T17:07:55.819Z,60.86
2023-11-18T17:10:24.829Z,60.92
2023-11-18T17:12:53.172Z,61.33
2023-11-18T17:15:21.646Z,61.51
2023-11-18T17:17:54.737Z,61.22
2023-11-18T17:20:23.324Z,60.86
2023-11-18T17:22:52.949Z,61.18
2023-11-18T17:25:24.651Z,61.40
2023-11-18T17:27:54.689Z,60.97
2023-11-18T17:30:23.629Z,60.93
2023-11-18T17:32:54.320Z,60.88
2023-11-18T17:35:23.470Z,61.10
2023-11-18T17:37:51.869Z,61.73
2023-11-18T17:40:22.645Z,61.58
2023-11-18T17:42:54.295Z,61.54
2023-11-18T17:45:25.499Z,61.57
2023-11-18T17:47:55.179Z,62.36
2023-11-18T17:50:23.704Z,62.68
2023-11-18T17:52:52.261Z,62.41
2023-11-18T17:55:20.638Z,61.49
2023-11-18T17:57:48.880Z,60.76
2023-11-18T18:00:23.398Z,60.14
2023-11-18T18:02:53.462Z,59.85
2023-11-18T18:05:24.920Z,59.39
2023-11-18T18:07:53.083Z,60.00
2023-11-18T18:10:23.525Z,60.82
2023-11-18T18:12:51.979Z,60.67
2023-11-18T18:15:20.266Z,61.01
2023-11-18T18:17:49.287Z,61.73
2023-11-18T18:20:21.052Z,61.29
2023-11-18T18:22:50.608Z,60.95
2023-11-18T18:25:19.156Z,61.52
2023-11-18T18:27:51.228Z,60.66
2023-11-18T18:30:19.498Z,60.13
2023-11-18T18:32:50.014Z,61.87
2023-11-18T18:35:18.637Z,62.59
2023-11-18T18:37:46.668Z,62.83
2023-11-18T18:40:16.569Z,62.52
2023-11-18T18:42:44.528Z,62.66
2023-11-18T18:45:14.068Z,61.59
2023-11-18T18:47:42.992Z,61.99
2023-11-18T18:50:11.677Z,62.91
2023-11-18T18:52:39.644Z,62.72
2023-11-18T18:55:08.706Z,62.52
2023-11-18T18:57:38.430Z,62.25
2023-11-18T19:00:08.837Z,62.62
2023-11-18T19:02:36.837Z,63.15
2023-11-18T19:05:05.210Z,63.21
2023-11-18T19:07:33.344Z,63.12
2023-11-18T19:10:01.870Z,62.30
2023-11-18T19:12:30.042Z,61.07
2023-11-18T19:14:59.301Z,61.89
2023-11-18T19:17:27.399Z,61.31
2023-11-18T19:19:55.895Z,61.80
2023-11-18T19:22:25.404Z,61.75
2023-11-18T19:24:53.430Z,62.02
2023-11-18T19:27:21.412Z,62.45
2023-11-18T19:29:49.501Z,63.56
2023-11-18T19:32:18.842Z,65.10
2023-11-18T19:34:46.920Z,66.20
2023-11-18T19:37:14.890Z,68.43
2023-11-18T19:39:44.310Z,68.28
2023-11-18T19:42:13.026Z,69.78
2023-11-18T19:44:40.997Z,70.83
2023-11-18T19:47:09.011Z,71.70
2023-11-18T19:49:38.362Z,73.51
2023-11-18T19:52:08.160Z,72.13
2023-11-18T19:54:36.387Z,71.03
2023-11-18T19:57:04.538Z,72.02
2023-11-18T19:59:33.805Z,73.16
2023-11-18T20:02:02.186Z,73.39
2023-11-18T20:04:31.272Z,73.42
2023-11-18T20:07:00.772Z,72.30
2023-11-18T20:09:28.753Z,72.69
2023-11-18T20:14:28.129Z,72.50
2023-11-18T20:16:57.269Z,73.05
2023-11-18T20:19:25.228Z,72.55
2023-11-18T20:21:53.808Z,73.34
2023-11-18T20:24:23.308Z,72.36
2023-11-18T20:26:51.247Z,74.02
2023-11-18T20:29:19.762Z,74.58
2023-11-18T20:31:47.797Z,74.83
2023-11-18T20:34:16.422Z,75.67
2023-11-18T20:36:45.010Z,76.45
2023-11-18T20:39:18.193Z,76.51
2023-11-18T20:41:49.609Z,77.86
2023-11-18T20:44:19.002Z,76.83
2023-11-18T20:46:47.122Z,76.62
2023-11-18T20:49:18.091Z,76.77
2023-11-18T20:51:46.254Z,76.44
2023-11-18T20:54:14.285Z,76.44
2023-11-18T20:56:42.311Z,78.15
2023-11-18T20:59:11.724Z,77.92
2023-11-18T21:01:39.782Z,77.20
2023-11-18T21:04:08.161Z,78.09
2023-11-18T21:06:36.568Z,78.98
2023-11-18T21:09:05.262Z,78.30
2023-11-18T21:11:33.271Z,79.29
2023-11-18T21:14:01.291Z,78.67
2023-11-18T21:16:31.936Z,79.38
2023-11-18T21:19:01.825Z,80.36
2023-11-18T21:21:30.154Z,82.58
2023-11-18T21:23:58.189Z,82.44
2023-11-18T21:26:26.235Z,80.89
2023-11-18T21:28:54.266Z,80.19
2023-11-18T21:31:22.218Z,80.30
2023-11-18T21:33:51.558Z,82.04
2023-11-18T21:36:22.327Z,82.95
2023-11-18T21:41:22.236Z,83.22
2023-11-18T21:43:50.236Z,83.33
2023-11-18T21:46:19.214Z,84.77
2023-11-18T21:48:47.234Z,83.71
2023-11-18T21:51:16.670Z,85.83
2023-11-18T21:53:44.825Z,85.49
2023-11-18T21:56:12.955Z,85.48
2023-11-18T21:58:41.049Z,84.72
2023-11-18T22:01:10.451Z,82.66
2023-11-18T22:03:38.720Z,82.08
2023-11-18T22:06:07.570Z,82.27
2023-11-18T22:08:36.911Z,80.93
2023-11-18T22:11:05.291Z,79.71
2023-11-18T22:13:33.223Z,79.04
2023-11-18T22:16:01.749Z,78.92
2023-11-18T22:18:29.900Z,77.72
2023-11-18T22:20:57.843Z,77.31
2023-11-18T22:23:27.735Z,77.19
2023-11-18T22:25:57.596Z,76.33
2023-11-18T22:28:25.815Z,75.77
2023-11-18T22:30:54.449Z,75.18
2023-11-18T22:35:54.918Z,74.73
2023-11-18T22:38:24.008Z,74.45
2023-11-18T22:40:52.619Z,74.11
2023-11-18T22:43:22.395Z,74.17
2023-11-18T22:45:51.798Z,74.16
2023-11-18T22:48:21.811Z,73.29
2023-11-18T22:50:49.842Z,72.84
2023-11-18T22:53:19.032Z,73.03
2023-11-18T22:55:48.710Z,73.29
2023-11-18T22:58:18.076Z,73.36
2023-11-18T23:00:53.974Z,73.73
2023-11-18T23:03:22.885Z,73.46
2023-11-18T23:05:54.205Z,73.54
2023-11-18T23:08:23.806Z,76.17
2023-11-18T23:10:52.292Z,76.66
2023-11-18T23:13:21.095Z,76.43
2023-11-18T23:15:50.685Z,76.68
2023-11-18T23:18:20.009Z,76.22
2023-11-18T23:20:49.030Z,75.39
2023-11-18T23:23:17.987Z,75.67
2023-11-18T23:25:46.326Z,76.30
2023-11-18T23:28:15.264Z,77.83
2023-11-18T23:30:46.492Z,77.49
2023-11-18T23:33:19.478Z,77.32
2023-11-18T23:35:47.586Z,77.47
2023-11-18T23:38:16.525Z,78.82
2023-11-18T23:40:44.818Z,78.15
2023-11-18T23:43:13.130Z,78.12
2023-11-18T23:45:42.367Z,77.35
2023-11-18T23:48:11.256Z,77.21
2023-11-18T23:50:41.269Z,77.72
2023-11-18T23:53:09.575Z,77.65
2023-11-18T23:55:37.863Z,77.87
2023-11-18T23:58:06.222Z,77.45
